createdAt,value
2023-01-13T00:01:23.884Z,97966.94
2023-01-13T00:03:52.534Z,97968.13
2023-01-13T00:06:22.071Z,97976.00
2023-01-13T00:08:51.195Z,97967.50
2023-01-13T00:11:20.476Z,97973.50
2023-01-13T00:13:49.033Z,97953.63
2023-01-13T00:16:19.370Z,97953.34
2023-01-13T00:18:51.249Z,97959.09
2023-01-13T00:21:20.945Z,97947.13
2023-01-13T00:23:50.084Z,97947.56
2023-01-13T00:26:19.903Z,97948.72
2023-01-13T00:28:48.432Z,97962.94
2023-01-13T00:31:18.455Z,97947.75
2023-01-13T00:33:49.073Z,97960.38
2023-01-13T00:36:21.549Z,97948.59
2023-01-13T00:38:50.192Z,97953.22
2023-01-13T00:41:20.043Z,97942.09
2023-01-13T00:43:47.922Z,97945.13
2023-01-13T00:46:18.810Z,97953.84
2023-01-13T00:48:48.281Z,97961.94
2023-01-13T00:51:20.023Z,97960.22
2023-01-13T00:53:50.111Z,97943.25
2023-01-13T00:56:34.208Z,97960.50
2023-01-13T00:59:07.721Z,97956.78
2023-01-13T01:01:36.219Z,97957.81
2023-01-13T01:04:05.040Z,97954.91
2023-01-13T01:06:34.788Z,97966.59
2023-01-13T01:09:03.527Z,97953.56
2023-01-13T01:11:32.933Z,97955.88
2023-01-13T01:14:03.833Z,97958.38
2023-01-13T01:16:33.542Z,97940.81
2023-01-13T01:19:03.572Z,97948.59
2023-01-13T01:21:32.774Z,97944.84
2023-01-13T01:24:04.941Z,97941.69
2023-01-13T01:26:33.942Z,97943.72
2023-01-13T01:29:03.262Z,97936.47
2023-01-13T01:31:32.828Z,97937.38
2023-01-13T01:34:01.876Z,97927.56
2023-01-13T01:36:31.240Z,97923.28
2023-01-13T01:39:02.430Z,97919.28
2023-01-13T01:41:33.051Z,97908.41
2023-01-13T01:44:02.875Z,97900.22
2023-01-13T01:46:33.725Z,97904.78
2023-01-13T01:49:10.426Z,97901.06
2023-01-13T01:51:41.009Z,97896.75
2023-01-13T01:54:13.559Z,97889.47
2023-01-13T01:56:43.584Z,97887.66
2023-01-13T01:59:12.682Z,97893.97
2023-01-13T02:01:42.544Z,97887.72
2023-01-13T02:04:14.353Z,97884.06
2023-01-13T02:06:48.985Z,97886.66
2023-01-13T02:09:19.109Z,97880.88
2023-01-13T02:12:05.250Z,97880.94
2023-01-13T02:14:35.185Z,97880.59
2023-01-13T02:17:17.345Z,97876.56
2023-01-13T02:20:25.295Z,97863.06
2023-01-13T02:23:46.915Z,97866.41
2023-01-13T02:26:48.387Z,97858.88
2023-01-13T02:29:48.719Z,97853.84
2023-01-13T02:32:21.571Z,97857.19
2023-01-13T02:34:54.740Z,97844.75
2023-01-13T02:37:29.764Z,97853.78
2023-01-13T02:40:00.876Z,97835.75
2023-01-13T02:42:51.342Z,97848.41
2023-01-13T02:45:25.625Z,97841.06
2023-01-13T02:47:55.976Z,97849.81
2023-01-13T02:50:27.054Z,97827.66
2023-01-13T02:52:56.037Z,97832.47
2023-01-13T02:55:31.389Z,97832.78
2023-01-13T02:58:00.711Z,97840.97
2023-01-13T03:00:30.666Z,97834.06
2023-01-13T03:02:59.212Z,97844.34
2023-01-13T03:05:27.637Z,97843.75
2023-01-13T03:08:10.810Z,97841.22
2023-01-13T03:10:53.884Z,97842.53
2023-01-13T03:13:30.963Z,97837.41
2023-01-13T03:16:07.347Z,97824.47
2023-01-13T03:18:42.937Z,97821.97
2023-01-13T03:21:15.829Z,97823.72
2023-01-13T03:23:50.938Z,97824.03
2023-01-13T03:26:24.372Z,97830.47
2023-01-13T03:28:57.514Z,97829.28
2023-01-13T03:31:30.073Z,97827.66
2023-01-13T03:34:00.842Z,97823.06
2023-01-13T03:36:30.616Z,97821.06
2023-01-13T03:39:02.831Z,97814.50
2023-01-13T03:41:34.853Z,97830.38
2023-01-13T03:44:25.786Z,97821.03
2023-01-13T03:47:01.693Z,97826.44
2023-01-13T03:49:35.350Z,97815.78
2023-01-13T03:52:07.129Z,97823.09
2023-01-13T03:54:39.311Z,97829.94
2023-01-13T03:57:10.707Z,97828.16
2023-01-13T03:59:42.779Z,97822.94
2023-01-13T04:02:17.748Z,97820.44
2023-01-13T04:04:50.467Z,97825.47
2023-01-13T04:07:25.064Z,97813.03
2023-01-13T04:09:56.213Z,97828.03
2023-01-13T04:12:27.981Z,97815.56
2023-01-13T04:14:56.949Z,97817.69
2023-01-13T04:17:26.543Z,97825.00
2023-01-13T04:19:55.006Z,97810.91
2023-01-13T04:22:23.258Z,97812.09
2023-01-13T04:24:51.688Z,97829.84
2023-01-13T04:27:20.028Z,97825.59
2023-01-13T04:29:48.522Z,97830.41
2023-01-13T04:32:16.715Z,97820.34
2023-01-13T04:34:46.715Z,97824.22
2023-01-13T04:37:15.130Z,97819.31
2023-01-13T04:39:43.799Z,97817.31
2023-01-13T04:42:12.068Z,97821.06
2023-01-13T04:44:40.624Z,97805.19
2023-01-13T04:47:08.898Z,97814.56
2023-01-13T04:49:37.350Z,97817.53
2023-01-13T04:52:07.192Z,97806.34
2023-01-13T04:54:35.651Z,97809.16
2023-01-13T04:57:03.840Z,97801.59
2023-01-13T04:59:34.460Z,97800.16
2023-01-13T05:02:03.275Z,97802.19
2023-01-13T05:04:31.913Z,97819.06
2023-01-13T05:07:00.202Z,97809.38
2023-01-13T05:09:30.256Z,97811.97
2023-01-13T05:12:16.218Z,97815.28
2023-01-13T05:15:01.960Z,97815.25
2023-01-13T05:17:30.286Z,97820.13
2023-01-13T05:19:58.761Z,97817.00
2023-01-13T05:22:44.248Z,97810.34
2023-01-13T05:25:24.610Z,97813.16
2023-01-13T05:27:54.425Z,97812.22
2023-01-13T05:30:24.718Z,97827.38
2023-01-13T05:32:53.101Z,97815.56
2023-01-13T05:35:21.658Z,97822.16
2023-01-13T05:37:49.981Z,97822.69
2023-01-13T05:40:38.292Z,97823.50
2023-01-13T05:43:24.827Z,97827.84
2023-01-13T05:45:57.924Z,97818.59
2023-01-13T05:48:28.947Z,97818.63
2023-01-13T05:50:57.352Z,97815.41
2023-01-13T05:53:25.852Z,97815.69
2023-01-13T05:55:55.929Z,97815.03
2023-01-13T05:58:26.762Z,97814.41
2023-01-13T06:01:00.900Z,97806.47
2023-01-13T06:03:29.083Z,97804.44
2023-01-13T06:05:59.470Z,97808.56
2023-01-13T06:08:27.775Z,97815.66
2023-01-13T06:10:57.864Z,97812.69
2023-01-13T06:13:26.403Z,97815.50
2023-01-13T06:15:57.896Z,97821.59
2023-01-13T06:18:26.108Z,97816.31
2023-01-13T06:20:54.724Z,97812.03
2023-01-13T06:23:22.982Z,97823.16
2023-01-13T06:25:55.164Z,97820.72
2023-01-13T06:28:24.761Z,97817.53
2023-01-13T06:30:57.858Z,97825.06
2023-01-13T06:33:29.076Z,97819.94
2023-01-13T06:36:00.140Z,97825.22
2023-01-13T06:38:30.307Z,97834.16
2023-01-13T06:40:58.995Z,97840.53
2023-01-13T06:43:27.740Z,97824.72
2023-01-13T06:45:57.454Z,97827.66
2023-01-13T06:48:27.636Z,97837.22
2023-01-13T06:50:56.196Z,97834.41
2023-01-13T06:53:24.631Z,97826.72
2023-01-13T06:55:53.359Z,97830.16
2023-01-13T06:58:21.576Z,97823.16
2023-01-13T07:00:51.811Z,97822.50
2023-01-13T07:03:21.534Z,97816.09
2023-01-13T07:05:54.123Z,97826.56
2023-01-13T07:08:22.561Z,97825.09
2023-01-13T07:10:51.438Z,97815.81
2023-01-13T07:13:37.010Z,97815.28
2023-01-13T07:16:08.894Z,97831.09
2023-01-13T07:18:37.481Z,97824.69
2023-01-13T07:21:08.013Z,97830.72
2023-01-13T07:23:37.802Z,97829.91
2023-01-13T07:26:07.087Z,97826.19
2023-01-13T07:28:35.443Z,97823.00
2023-01-13T07:31:04.203Z,97810.72
2023-01-13T07:33:34.120Z,97825.72
2023-01-13T07:36:04.119Z,97828.72
2023-01-13T07:38:33.241Z,97815.38
2023-01-13T07:41:23.205Z,97830.97
2023-01-13T07:43:50.815Z,97833.34
2023-01-13T07:46:19.939Z,97827.56
2023-01-13T07:48:50.201Z,97823.63
2023-01-13T07:51:19.060Z,97830.41
2023-01-13T07:53:47.401Z,97815.88
2023-01-13T07:56:16.006Z,97810.75
2023-01-13T07:58:45.304Z,97823.63
2023-01-13T08:01:16.957Z,97817.25
2023-01-13T08:03:45.677Z,97824.22
2023-01-13T08:06:15.757Z,97819.66
2023-01-13T08:08:44.209Z,97821.81
2023-01-13T08:11:12.830Z,97827.88
2023-01-13T08:13:41.193Z,97823.91
2023-01-13T08:16:11.393Z,97828.13
2023-01-13T08:18:40.225Z,97835.91
2023-01-13T08:21:10.303Z,97827.66
2023-01-13T08:23:40.521Z,97829.84
2023-01-13T08:26:10.811Z,97838.91
2023-01-13T08:28:41.608Z,97836.00
2023-01-13T08:31:12.861Z,97833.53
2023-01-13T08:33:41.759Z,97840.16
2023-01-13T08:36:13.282Z,97844.13
2023-01-13T08:38:43.361Z,97846.22
2023-01-13T08:41:13.052Z,97846.28
2023-01-13T08:43:41.626Z,97860.16
2023-01-13T08:46:10.536Z,97853.94
2023-01-13T08:48:39.134Z,97846.78
2023-01-13T08:51:09.751Z,97849.31
2023-01-13T08:53:38.101Z,97847.13
2023-01-13T08:56:11.816Z,97843.41
2023-01-13T08:58:41.068Z,97847.84
2023-01-13T09:01:10.347Z,97839.94
2023-01-13T09:03:39.522Z,97852.19
2023-01-13T09:06:08.248Z,97859.00
2023-01-13T09:08:36.616Z,97838.44
2023-01-13T09:11:26.188Z,97831.94
2023-01-13T09:13:54.904Z,97829.13
2023-01-13T09:16:23.462Z,97842.81
2023-01-13T09:18:51.670Z,97842.59
2023-01-13T09:21:21.199Z,97846.75
2023-01-13T09:23:49.535Z,97840.28
2023-01-13T09:26:21.755Z,97846.75
2023-01-13T09:28:50.004Z,97840.84
2023-01-13T09:31:19.953Z,97836.97
2023-01-13T09:34:05.611Z,97836.34
2023-01-13T09:36:34.315Z,97832.59
2023-01-13T09:39:02.838Z,97829.53
2023-01-13T09:41:50.287Z,97826.69
2023-01-13T09:44:21.740Z,97813.13
2023-01-13T09:46:54.767Z,97819.28
2023-01-13T09:49:25.372Z,97811.97
2023-01-13T09:51:57.073Z,97819.06
2023-01-13T09:54:27.410Z,97816.88
2023-01-13T09:56:56.948Z,97818.22
2023-01-13T09:59:28.658Z,97803.69
2023-01-13T10:02:01.939Z,97807.78
2023-01-13T10:04:30.292Z,97809.16
2023-01-13T10:07:01.539Z,97802.97
2023-01-13T10:09:35.530Z,97804.53
2023-01-13T10:12:22.214Z,97787.03
2023-01-13T10:14:53.860Z,97794.63
2023-01-13T10:17:29.875Z,97788.66
2023-01-13T10:20:04.772Z,97774.22
2023-01-13T10:22:47.087Z,97775.53
2023-01-13T10:25:29.627Z,97776.53
2023-01-13T10:28:04.465Z,97775.03
2023-01-13T10:30:37.844Z,97775.97
2023-01-13T10:33:12.760Z,97764.03
2023-01-13T10:35:52.902Z,97765.19
2023-01-13T10:38:23.441Z,97769.75
2023-01-13T10:40:54.115Z,97752.28
2023-01-13T10:43:22.844Z,97761.50
2023-01-13T10:45:58.938Z,97758.97
2023-01-13T10:48:38.054Z,97770.19
2023-01-13T10:51:28.055Z,97761.03
2023-01-13T10:54:02.897Z,97753.06
2023-01-13T10:56:33.640Z,97748.44
2023-01-13T10:59:15.031Z,97739.81
2023-01-13T11:01:44.665Z,97738.09
2023-01-13T11:04:28.320Z,97731.97
2023-01-13T11:06:56.889Z,97740.03
2023-01-13T11:09:27.017Z,97739.34
2023-01-13T11:11:56.848Z,97722.25
2023-01-13T11:14:37.007Z,97726.25
2023-01-13T11:17:12.487Z,97733.75
2023-01-13T11:19:46.333Z,97736.81
2023-01-13T11:22:18.617Z,97737.44
2023-01-13T11:24:52.006Z,97739.66
2023-01-13T11:27:23.484Z,97727.91
2023-01-13T11:30:01.459Z,97736.16
2023-01-13T11:32:32.835Z,97747.16
2023-01-13T11:35:06.490Z,97738.22
2023-01-13T11:37:38.967Z,97736.00
2023-01-13T11:40:14.587Z,97736.28
2023-01-13T11:42:47.965Z,97737.72
2023-01-13T11:45:20.345Z,97727.22
2023-01-13T11:47:50.729Z,97723.50
2023-01-13T11:50:34.596Z,97712.31
2023-01-13T11:53:20.548Z,97712.66
2023-01-13T11:55:57.141Z,97707.47
2023-01-13T11:58:50.245Z,97705.88
2023-01-13T12:01:32.513Z,97704.22
2023-01-13T12:04:11.665Z,97710.06
2023-01-13T12:06:43.632Z,97709.41
2023-01-13T12:09:35.209Z,97700.66
2023-01-13T12:12:20.632Z,97708.13
2023-01-13T12:15:03.032Z,97708.00
2023-01-13T12:17:36.049Z,97709.25
2023-01-13T12:20:17.925Z,97702.78
2023-01-13T12:22:49.494Z,97712.19
2023-01-13T12:25:22.344Z,97714.28
2023-01-13T12:27:54.176Z,97715.09
2023-01-13T12:30:26.410Z,97700.66
2023-01-13T12:32:56.668Z,97707.66
2023-01-13T12:35:34.080Z,97705.69
2023-01-13T12:38:09.614Z,97703.13
2023-01-13T12:40:48.231Z,97707.16
2023-01-13T12:43:36.186Z,97713.31
2023-01-13T12:46:34.652Z,97711.50
2023-01-13T12:49:20.565Z,97709.09
2023-01-13T12:52:14.979Z,97723.50
2023-01-13T12:55:10.187Z,97722.88
2023-01-13T12:57:39.681Z,97720.84
2023-01-13T13:00:17.379Z,97733.72
2023-01-13T13:03:24.046Z,97724.00
2023-01-13T13:05:58.062Z,97719.94
2023-01-13T13:08:39.366Z,97716.56
2023-01-13T13:11:40.070Z,97732.88
2023-01-13T13:14:12.686Z,97737.91
2023-01-13T13:16:51.082Z,97733.22
2023-01-13T13:19:48.312Z,97727.72
2023-01-13T13:22:22.106Z,97736.59
2023-01-13T13:25:27.773Z,97735.66
2023-01-13T13:28:18.005Z,97737.56
2023-01-13T13:30:52.356Z,97734.59
2023-01-13T13:33:38.429Z,97732.22
2023-01-13T13:36:17.939Z,97738.53
2023-01-13T13:39:21.239Z,97734.81
2023-01-13T13:42:09.874Z,97742.59
2023-01-13T13:44:59.427Z,97743.91
2023-01-13T13:47:36.510Z,97751.72
2023-01-13T13:50:09.331Z,97756.56
2023-01-13T13:52:40.269Z,97745.75
2023-01-13T13:55:10.062Z,97745.81
2023-01-13T13:57:42.689Z,97744.97
2023-01-13T14:00:23.121Z,97743.44
2023-01-13T14:02:53.562Z,97739.44
2023-01-13T14:05:24.014Z,97744.69
2023-01-13T14:07:57.739Z,97736.66
2023-01-13T14:10:31.218Z,97732.31
2023-01-13T14:13:01.378Z,97731.34
2023-01-13T14:15:37.030Z,97741.75
2023-01-13T14:18:07.059Z,97728.59
2023-01-13T14:20:37.035Z,97733.78
2023-01-13T14:23:05.979Z,97733.97
2023-01-13T14:25:39.549Z,97734.34
2023-01-13T14:28:24.459Z,97726.88
2023-01-13T14:31:01.718Z,97733.59
2023-01-13T14:33:35.518Z,97736.69
2023-01-13T14:36:16.709Z,97725.56
2023-01-13T14:38:46.984Z,97722.91
2023-01-13T14:41:21.988Z,97720.66
2023-01-13T14:43:51.408Z,97728.16
2023-01-13T14:46:25.483Z,97732.66
2023-01-13T14:49:01.476Z,97732.56
2023-01-13T14:51:31.718Z,97732.09
2023-01-13T14:54:00.310Z,97741.50
2023-01-13T14:56:44.007Z,97746.97
2023-01-13T14:59:35.343Z,97749.31
2023-01-13T15:02:20.437Z,97748.69
2023-01-13T15:04:54.318Z,97751.31
2023-01-13T15:07:27.003Z,97756.31
2023-01-13T15:09:56.315Z,97760.63
2023-01-13T15:12:39.508Z,97756.56
2023-01-13T15:15:21.663Z,97761.13
2023-01-13T15:17:50.564Z,97754.84
2023-01-13T15:20:21.989Z,97752.59
2023-01-13T15:22:51.497Z,97759.56
2023-01-13T15:25:20.347Z,97760.63
2023-01-13T15:27:51.012Z,97765.88
2023-01-13T15:30:22.096Z,97770.88
2023-01-13T15:32:50.564Z,97759.72
2023-01-13T15:35:21.290Z,97765.66
2023-01-13T15:37:50.620Z,97767.50
2023-01-13T15:40:21.427Z,97775.34
2023-01-13T15:43:07.312Z,97774.78
2023-01-13T15:46:08.214Z,97781.13
2023-01-13T15:58:21.610Z,97794.50
2023-01-13T16:00:50.535Z,97797.75
2023-01-13T16:03:21.050Z,97799.75
2023-01-13T16:05:52.583Z,97813.78
2023-01-13T16:08:23.596Z,97816.13
2023-01-13T16:10:52.193Z,97818.88
2023-01-13T16:13:21.955Z,97806.78
2023-01-13T16:15:52.803Z,97815.38
2023-01-13T16:18:24.454Z,97811.97
2023-01-13T16:20:55.341Z,97814.56
2023-01-13T16:23:24.464Z,97809.94
2023-01-13T16:25:53.435Z,97810.22
2023-01-13T16:28:29.185Z,97815.53
2023-01-13T16:30:57.843Z,97813.53
2023-01-13T16:33:26.296Z,97810.53
2023-01-13T16:36:10.879Z,97814.09
2023-01-13T16:38:41.243Z,97814.47
2023-01-13T16:41:11.196Z,97818.66
2023-01-13T16:43:41.674Z,97821.69
2023-01-13T16:46:24.712Z,97819.81
2023-01-13T16:48:55.172Z,97820.38
2023-01-13T16:51:25.381Z,97811.72
2023-01-13T16:53:54.213Z,97815.84
2023-01-13T16:56:26.127Z,97827.31
2023-01-13T16:58:57.203Z,97819.06
2023-01-13T17:01:26.839Z,97821.72
2023-01-13T17:03:55.869Z,97815.78
2023-01-13T17:06:26.992Z,97808.84
2023-01-13T17:08:57.578Z,97816.00
2023-01-13T17:11:26.797Z,97818.75
2023-01-13T17:13:56.859Z,97824.69
2023-01-13T17:16:26.435Z,97813.34
2023-01-13T17:18:55.207Z,97814.16
2023-01-13T17:21:24.422Z,97818.16
2023-01-13T17:23:53.149Z,97817.53
2023-01-13T17:26:33.532Z,97818.88
2023-01-13T17:29:04.684Z,97815.41
2023-01-13T17:31:34.148Z,97811.34
2023-01-13T17:34:03.060Z,97830.03
2023-01-13T17:36:32.402Z,97826.81
2023-01-13T17:39:00.879Z,97821.19
2023-01-13T17:41:30.326Z,97825.44
2023-01-13T17:43:58.979Z,97829.63
2023-01-13T17:46:29.717Z,97822.94
2023-01-13T17:48:58.241Z,97825.69
2023-01-13T17:51:27.306Z,97825.75
2023-01-13T17:53:56.071Z,97823.22
2023-01-13T17:56:25.874Z,97832.47
2023-01-13T17:58:54.571Z,97839.97
2023-01-13T18:01:24.428Z,97843.41
2023-01-13T18:03:54.859Z,97840.50
2023-01-13T18:06:38.903Z,97843.03
2023-01-13T18:09:07.704Z,97846.63
2023-01-13T18:11:36.938Z,97839.63
2023-01-13T18:14:05.832Z,97862.25
2023-01-13T18:16:37.797Z,97859.88
2023-01-13T18:19:25.153Z,97858.59
2023-01-13T18:22:12.308Z,97864.59
2023-01-13T18:24:58.615Z,97862.69
2023-01-13T18:27:32.597Z,97870.28
2023-01-13T18:30:02.334Z,97875.50
2023-01-13T18:32:33.568Z,97884.25
2023-01-13T18:35:06.938Z,97880.69
2023-01-13T18:37:38.750Z,97893.06
2023-01-13T18:40:07.906Z,97885.31
2023-01-13T18:42:54.928Z,97904.25
2023-01-13T18:45:25.793Z,97894.56
2023-01-13T18:47:55.741Z,97904.31
2023-01-13T18:50:25.945Z,97904.56
2023-01-13T18:52:54.647Z,97905.34
2023-01-13T18:55:23.191Z,97899.38
2023-01-13T18:57:52.127Z,97900.56
2023-01-13T19:00:22.481Z,97923.53
2023-01-13T19:05:38.357Z,97912.88
2023-01-13T19:08:07.174Z,97924.38
2023-01-13T19:10:36.558Z,97923.56
2023-01-13T19:13:05.372Z,97924.47
2023-01-13T19:15:33.716Z,97931.88
2023-01-13T19:18:02.582Z,97930.16
2023-01-13T19:20:30.966Z,97940.25
2023-01-13T19:23:01.188Z,97943.13
2023-01-13T19:25:29.709Z,97948.31
2023-01-13T19:27:58.768Z,97940.28
2023-01-13T19:30:27.331Z,97950.59
2023-01-13T19:32:56.048Z,97952.09
2023-01-13T19:35:24.413Z,97948.25
2023-01-13T19:37:54.193Z,97954.56
2023-01-13T19:40:23.925Z,97953.34
2023-01-13T19:43:10.239Z,97964.22
2023-01-13T19:45:38.659Z,97949.13
2023-01-13T19:48:08.745Z,97971.53
2023-01-13T19:50:38.591Z,97976.09
2023-01-13T19:53:07.931Z,97977.84
2023-01-13T19:55:38.174Z,97971.34
2023-01-13T19:58:08.306Z,97972.56
2023-01-13T20:00:37.538Z,97966.97
2023-01-13T20:03:10.886Z,97974.28
2023-01-13T20:05:39.721Z,97971.66
2023-01-13T20:08:08.244Z,97985.97
2023-01-13T20:10:38.934Z,97974.81
2023-01-13T20:13:08.104Z,97970.84
2023-01-13T20:15:36.891Z,97973.53
2023-01-13T20:18:05.643Z,97991.63
2023-01-13T20:20:34.499Z,97984.41
2023-01-13T20:23:03.100Z,97980.31
2023-01-13T20:25:32.237Z,97985.81
2023-01-13T20:28:03.141Z,97976.56
2023-01-13T20:30:32.477Z,97980.13
2023-01-13T20:33:01.007Z,97988.19
2023-01-13T20:35:30.011Z,97991.19
2023-01-13T20:37:58.576Z,98000.72
2023-01-13T20:40:27.323Z,98000.66
2023-01-13T20:42:55.089Z,97989.59
2023-01-13T20:45:26.328Z,97998.34
2023-01-13T20:47:55.502Z,97995.91
2023-01-13T20:50:24.405Z,98004.59
2023-01-13T20:52:53.058Z,98003.22
2023-01-13T20:55:22.730Z,98011.19
2023-01-13T20:57:51.608Z,98009.84
2023-01-13T21:00:22.020Z,98018.47
2023-01-13T21:02:51.910Z,98024.91
2023-01-13T21:05:20.798Z,98023.00
2023-01-13T21:07:49.252Z,98011.00
2023-01-13T21:10:18.267Z,98025.31
2023-01-13T21:13:04.303Z,98026.66
2023-01-13T21:15:33.462Z,98039.53
2023-01-13T21:18:20.892Z,98032.53
2023-01-13T21:20:51.122Z,98043.88
2023-01-13T21:23:21.096Z,98034.88
2023-01-13T21:25:51.973Z,98038.41
2023-01-13T21:28:20.730Z,98034.16
2023-01-13T21:30:52.890Z,98030.84
2023-01-13T21:33:22.957Z,98035.50
2023-01-13T21:35:51.730Z,98043.84
2023-01-13T21:38:20.379Z,98057.38
2023-01-13T21:40:57.815Z,98046.44
2023-01-13T21:43:43.769Z,98055.63
2023-01-13T21:46:31.910Z,98047.75
2023-01-13T21:49:02.136Z,98047.66
2023-01-13T21:51:31.101Z,98056.09
2023-01-13T21:53:59.862Z,98058.19
2023-01-13T21:56:28.942Z,98063.22
2023-01-13T21:58:57.589Z,98058.66
2023-01-13T22:01:26.944Z,98066.94
2023-01-13T22:04:13.987Z,98074.28
2023-01-13T22:06:44.146Z,98052.97
2023-01-13T22:09:13.005Z,98063.41
2023-01-13T22:11:41.756Z,98069.88
2023-01-13T22:14:11.072Z,98066.69
2023-01-13T22:16:42.143Z,98070.31
2023-01-13T22:19:11.525Z,98053.97
2023-01-13T22:21:40.540Z,98069.00
2023-01-13T22:24:11.029Z,98065.53
2023-01-13T22:26:39.684Z,98071.13
2023-01-13T22:29:07.931Z,98072.03
2023-01-13T22:31:36.849Z,98060.63
2023-01-13T22:34:05.731Z,98078.41
2023-01-13T22:36:34.778Z,98076.78
2023-01-13T22:39:04.894Z,98070.28
2023-01-13T22:41:35.192Z,98081.72
2023-01-13T22:44:03.793Z,98083.16
2023-01-13T22:46:32.671Z,98071.28
2023-01-13T22:49:01.247Z,98074.75
2023-01-13T22:51:30.819Z,98086.47
2023-01-13T22:53:59.097Z,98072.31
2023-01-13T22:56:28.401Z,98070.31
2023-01-13T22:59:00.467Z,98093.50
2023-01-13T23:01:31.010Z,98085.91
2023-01-13T23:04:00.333Z,98080.34
2023-01-13T23:06:30.767Z,98099.81
2023-01-13T23:08:59.673Z,98097.88
2023-01-13T23:11:29.748Z,98104.00
2023-01-13T23:14:01.505Z,98100.31
2023-01-13T23:16:31.552Z,98094.50
2023-01-13T23:19:00.099Z,98101.75
2023-01-13T23:21:31.127Z,98095.88
2023-01-13T23:24:00.565Z,98108.47
2023-01-13T23:26:31.098Z,98115.41
2023-01-13T23:29:03.266Z,98111.19
2023-01-13T23:31:31.998Z,98103.56
2023-01-13T23:34:00.989Z,98106.63
2023-01-13T23:36:31.839Z,98105.75
2023-01-13T23:39:00.597Z,98111.28
2023-01-13T23:41:29.622Z,98113.72
2023-01-13T23:44:00.291Z,98118.22
2023-01-13T23:46:33.040Z,98117.28
2023-01-13T23:49:02.616Z,98120.72
2023-01-13T23:51:31.426Z,98121.34
2023-01-13T23:54:00.255Z,98129.09
2023-01-13T23:56:30.939Z,98129.47
2023-01-13T23:58:59.928Z,98127.63
